Time;durP1;ratioP1;P1;durP2;ratioP2;P2;SDS_P1;SDS_P2;PMS_P1;PMS_P2;Temp;Humidity;BMP_temperature;BMP_pressure;BME280_temperature;BME280_humidity;BME280_pressure;Samples;Min_cycle;Max_cycle;Signal;HPM_P1;HPM_P2
2021/09/09 00:01:09;;;;;;;10.40;8.07;;;;;;;;;;5034390;28;20065;-58
2021/09/09 00:03:35;;;;;;;8.85;7.30;;;;;;;;;;5034292;28;20035;-58
2021/09/09 00:06:01;;;;;;;7.82;6.85;;;;;;;;;;5034535;28;20451;-58
2021/09/09 00:08:27;;;;;;;9.15;7.35;;;;;;;;;;5034229;28;20081;-58
2021/09/09 00:10:53;;;;;;;9.18;7.13;;;;;;;;;;5016795;28;20025;-58
2021/09/09 00:13:19;;;;;;;8.88;6.70;;;;;;;;;;5034691;28;20069;-58
2021/09/09 00:15:45;;;;;;;8.90;7.88;;;;;;;;;;5033667;28;20060;-58
2021/09/09 00:18:11;;;;;;;7.38;6.38;;;;;;;;;;5034340;28;20407;-58
2021/09/09 00:20:37;;;;;;;8.32;6.93;;;;;;;;;;5033880;28;20452;-58
2021/09/09 00:23:04;;;;;;;8.70;7.10;;;;;;;;;;5034217;28;20021;-58
2021/09/09 00:25:29;;;;;;;12.32;8.40;;;;;;;;;;5033785;28;20384;-58
2021/09/09 00:27:56;;;;;;;10.30;7.45;;;;;;;;;;5033748;28;20026;-58
2021/09/09 00:30:22;;;;;;;9.32;8.38;;;;;;;;;;5033650;28;20082;-58
2021/09/09 00:32:48;;;;;;;9.95;7.82;;;;;;;;;;5034272;28;20360;-58
2021/09/09 00:35:14;;;;;;;9.68;8.23;;;;;;;;;;5034415;28;20028;-58
2021/09/09 00:37:40;;;;;;;8.93;7.45;;;;;;;;;;5033544;28;20356;-58
2021/09/09 00:40:07;;;;;;;11.18;8.55;;;;;;;;;;5034132;28;20021;-58
2021/09/09 00:42:33;;;;;;;9.23;8.18;;;;;;;;;;5033682;28;20021;-58
2021/09/09 00:44:59;;;;;;;8.80;7.63;;;;;;;;;;5033574;28;20028;-58
2021/09/09 00:47:25;;;;;;;7.65;6.85;;;;;;;;;;5033577;28;20033;-58
2021/09/09 00:49:51;;;;;;;9.38;7.97;;;;;;;;;;5033525;28;20033;-58
2021/09/09 00:52:17;;;;;;;8.88;7.65;;;;;;;;;;5033815;28;20025;-58
2021/09/09 00:54:44;;;;;;;10.98;7.88;;;;;;;;;;5033176;28;20479;-58
2021/09/09 00:57:10;;;;;;;8.45;7.28;;;;;;;;;;5033704;28;20076;-58
2021/09/09 00:59:37;;;;;;;7.78;7.00;;;;;;;;;;5033465;28;20049;-58
2021/09/09 01:02:04;;;;;;;11.23;8.18;;;;;;;;;;5033722;28;20088;-58
2021/09/09 01:04:30;;;;;;;10.35;7.18;;;;;;;;;;5033344;28;20026;-58
2021/09/09 01:06:56;;;;;;;9.48;8.50;;;;;;;;;;5033347;28;20061;-59
2021/09/09 01:09:23;;;;;;;10.20;8.85;;;;;;;;;;5036253;28;20108;-58
2021/09/09 01:11:49;;;;;;;8.07;7.38;;;;;;;;;;5037611;28;20091;-58
2021/09/09 01:14:16;;;;;;;8.60;7.65;;;;;;;;;;5038175;28;20072;-58
2021/09/09 01:16:43;;;;;;;8.65;7.75;;;;;;;;;;5037191;28;20049;-58
2021/09/09 01:19:10;;;;;;;9.88;7.97;;;;;;;;;;5037159;28;20056;-58
2021/09/09 01:21:36;;;;;;;10.15;8.35;;;;;;;;;;5037602;28;20400;-58
2021/09/09 01:24:03;;;;;;;9.98;8.98;;;;;;;;;;5037442;28;20053;-57
2021/09/09 01:26:30;;;;;;;11.25;8.55;;;;;;;;;;5037043;28;20064;-58
2021/09/09 01:28:57;;;;;;;11.60;8.82;;;;;;;;;;5037498;28;20052;-58
2021/09/09 01:31:24;;;;;;;10.70;8.85;;;;;;;;;;5037629;28;20030;-58
2021/09/09 01:33:56;;;;;;;10.55;8.35;;;;;;;;;;5037261;28;20053;-58
2021/09/09 01:36:22;;;;;;;9.30;8.32;;;;;;;;;;5036721;28;20475;-58
2021/09/09 01:38:48;;;;;;;12.52;8.88;;;;;;;;;;5036723;28;20034;-58
2021/09/09 01:41:14;;;;;;;8.57;7.78;;;;;;;;;;5036762;28;20026;-58
2021/09/09 01:43:40;;;;;;;11.30;9.20;;;;;;;;;;5037499;28;20341;-58
2021/09/09 01:46:06;;;;;;;17.55;9.35;;;;;;;;;;5036615;28;20084;-57
2021/09/09 01:48:32;;;;;;;10.18;8.77;;;;;;;;;;5019113;28;20029;-58
2021/09/09 01:50:59;;;;;;;11.18;9.65;;;;;;;;;;5036589;28;20108;-58
2021/09/09 01:53:25;;;;;;;8.50;7.68;;;;;;;;;;5036337;28;20104;-58
2021/09/09 01:55:51;;;;;;;10.48;9.38;;;;;;;;;;5036525;28;20072;-58
2021/09/09 01:58:17;;;;;;;9.70;8.70;;;;;;;;;;5036311;28;20447;-57
2021/09/09 02:00:43;;;;;;;11.30;8.52;;;;;;;;;;5036418;28;20029;-57
2021/09/09 02:03:12;;;;;;;10.57;8.77;;;;;;;;;;5036487;28;20451;-58
2021/09/09 02:05:38;;;;;;;11.10;8.70;;;;;;;;;;5036779;28;20516;-58
2021/09/09 02:08:04;;;;;;;11.70;9.82;;;;;;;;;;5036018;28;20113;-58
2021/09/09 02:10:30;;;;;;;8.80;7.93;;;;;;;;;;5036225;28;20097;-58
2021/09/09 02:12:56;;;;;;;11.13;9.25;;;;;;;;;;5036010;28;20073;-58
2021/09/09 02:15:22;;;;;;;13.70;9.30;;;;;;;;;;5036421;28;20076;-58
2021/09/09 02:17:48;;;;;;;11.50;9.50;;;;;;;;;;5035715;28;20472;-58
2021/09/09 02:20:14;;;;;;;18.05;9.07;;;;;;;;;;5034831;28;20018;-58
2021/09/09 02:22:40;;;;;;;8.95;8.05;;;;;;;;;;5035902;28;20018;-58
2021/09/09 02:25:06;;;;;;;12.63;9.68;;;;;;;;;;5035896;28;20017;-58
2021/09/09 02:27:32;;;;;;;14.95;9.73;;;;;;;;;;5035851;28;20021;-58
2021/09/09 02:29:58;;;;;;;8.77;7.57;;;;;;;;;;5035804;28;20025;-58
2021/09/09 02:32:24;;;;;;;12.35;8.65;;;;;;;;;;5035851;28;20368;-58
2021/09/09 02:34:50;;;;;;;8.85;7.88;;;;;;;;;;5035782;28;20025;-58
2021/09/09 02:37:16;;;;;;;11.55;8.73;;;;;;;;;;5035971;28;20030;-58
2021/09/09 02:39:46;;;;;;;10.35;8.00;;;;;;;;;;5035688;28;20104;-58
2021/09/09 02:42:12;;;;;;;9.23;8.32;;;;;;;;;;5036211;28;20344;-58
2021/09/09 02:44:38;;;;;;;12.30;9.60;;;;;;;;;;5017789;28;20026;-58
2021/09/09 02:47:04;;;;;;;8.57;7.63;;;;;;;;;;5018594;28;20510;-58
2021/09/09 02:49:30;;;;;;;11.48;9.88;;;;;;;;;;5035170;28;20022;-58
2021/09/09 02:51:56;;;;;;;11.02;9.35;;;;;;;;;;5035863;28;20022;-58
2021/09/09 02:54:22;;;;;;;9.73;8.65;;;;;;;;;;5035201;28;20184;-57
2021/09/09 02:56:48;;;;;;;9.77;8.65;;;;;;;;;;5035704;28;20661;-58
2021/09/09 02:59:14;;;;;;;10.02;8.40;;;;;;;;;;5035559;28;20033;-58
2021/09/09 03:01:40;;;;;;;10.30;8.18;;;;;;;;;;5035523;28;20448;-58
2021/09/09 03:04:07;;;;;;;13.13;7.88;;;;;;;;;;5035211;28;20084;-58
2021/09/09 03:06:33;;;;;;;10.93;8.88;;;;;;;;;;5035992;28;20061;-57
2021/09/09 03:08:59;;;;;;;11.32;8.55;;;;;;;;;;5018145;28;20361;-58
2021/09/09 03:11:25;;;;;;;8.43;7.53;;;;;;;;;;5035120;28;20033;-58
2021/09/09 03:13:51;;;;;;;11.15;7.90;;;;;;;;;;5035815;28;20054;-57
2021/09/09 03:16:17;;;;;;;9.20;8.00;;;;;;;;;;5034678;28;20049;-58
2021/09/09 03:18:49;;;;;;;10.00;8.05;;;;;;;;;;5034973;28;20029;-58
2021/09/09 03:21:15;;;;;;;12.38;9.25;;;;;;;;;;5034842;28;20441;-58
2021/09/09 03:23:41;;;;;;;9.32;8.05;;;;;;;;;;5035450;28;20025;-58
2021/09/09 03:26:07;;;;;;;11.00;8.85;;;;;;;;;;5035030;28;20089;-58
2021/09/09 03:28:33;;;;;;;10.65;9.55;;;;;;;;;;5034742;28;20030;-58
2021/09/09 03:30:59;;;;;;;12.98;10.13;;;;;;;;;;5034208;28;20113;-58
2021/09/09 03:33:25;;;;;;;11.82;9.50;;;;;;;;;;5035296;28;20022;-58
2021/09/09 03:35:51;;;;;;;11.90;10.07;;;;;;;;;;5035481;28;20119;-58
2021/09/09 03:38:20;;;;;;;9.85;8.45;;;;;;;;;;5034533;28;20037;-58
2021/09/09 03:40:46;;;;;;;10.48;9.18;;;;;;;;;;5034550;28;20029;-58
2021/09/09 03:43:12;;;;;;;12.13;9.13;;;;;;;;;;5034815;28;20118;-58
2021/09/09 03:45:38;;;;;;;9.95;8.27;;;;;;;;;;5034484;28;20104;-58
2021/09/09 03:48:04;;;;;;;9.48;7.28;;;;;;;;;;5034370;28;20033;-58
2021/09/09 03:50:30;;;;;;;10.68;9.13;;;;;;;;;;5034385;28;20040;-58
2021/09/09 03:52:56;;;;;;;10.15;8.88;;;;;;;;;;5034743;28;20446;-58
2021/09/09 03:55:22;;;;;;;10.38;8.85;;;;;;;;;;5034351;28;20081;-58
2021/09/09 03:57:51;;;;;;;10.02;9.00;;;;;;;;;;5016261;28;20030;-58
2021/09/09 04:00:17;;;;;;;8.02;7.13;;;;;;;;;;5033962;28;20021;-58
2021/09/09 04:02:43;;;;;;;11.32;9.00;;;;;;;;;;5033878;28;20057;-57
2021/09/09 04:05:09;;;;;;;8.90;7.97;;;;;;;;;;5034066;28;20116;-58
2021/09/09 04:07:38;;;;;;;9.35;8.30;;;;;;;;;;5034143;28;20068;-58
2021/09/09 04:10:05;;;;;;;9.27;8.25;;;;;;;;;;5034381;28;20495;-58
2021/09/09 04:12:31;;;;;;;11.00;9.70;;;;;;;;;;5016803;28;20140;-58
2021/09/09 04:14:58;;;;;;;8.43;7.63;;;;;;;;;;5016306;28;20026;-58
2021/09/09 04:17:24;;;;;;;10.85;7.93;;;;;;;;;;5033697;28;20376;-58
2021/09/09 04:19:50;;;;;;;10.63;8.57;;;;;;;;;;5016472;28;20017;-58
2021/09/09 04:22:16;;;;;;;9.00;8.10;;;;;;;;;;5034220;28;20029;-58
2021/09/09 04:24:42;;;;;;;8.90;8.02;;;;;;;;;;5016468;28;20415;-58
2021/09/09 04:27:08;;;;;;;10.32;9.05;;;;;;;;;;5033840;28;20017;-58
2021/09/09 04:29:34;;;;;;;10.77;9.20;;;;;;;;;;5033483;28;20026;-58
2021/09/09 04:32:00;;;;;;;11.05;9.30;;;;;;;;;;5033475;28;20025;-58
2021/09/09 04:34:26;;;;;;;9.18;8.38;;;;;;;;;;5016295;28;20048;-58
2021/09/09 04:36:52;;;;;;;11.48;8.70;;;;;;;;;;5033830;28;20118;-58
2021/09/09 04:39:18;;;;;;;12.20;9.55;;;;;;;;;;5033658;28;20029;-58
2021/09/09 04:41:44;;;;;;;10.60;8.68;;;;;;;;;;5034479;28;20116;-58
2021/09/09 04:44:10;;;;;;;9.75;7.90;;;;;;;;;;5032886;28;20026;-58
2021/09/09 04:46:36;;;;;;;10.43;8.00;;;;;;;;;;5033434;28;20057;-58
2021/09/09 04:49:02;;;;;;;9.57;8.50;;;;;;;;;;5033388;28;20032;-58
2021/09/09 04:51:28;;;;;;;9.40;8.43;;;;;;;;;;5016197;28;20430;-57
2021/09/09 04:53:54;;;;;;;10.55;8.65;;;;;;;;;;5016267;28;20110;-58
2021/09/09 04:56:20;;;;;;;10.63;8.30;;;;;;;;;;5033772;28;20033;-58
2021/09/09 04:58:46;;;;;;;9.98;8.05;;;;;;;;;;5034170;28;20356;-58
2021/09/09 05:01:12;;;;;;;12.10;8.77;;;;;;;;;;5033526;28;20020;-58
2021/09/09 05:03:38;;;;;;;11.85;8.93;;;;;;;;;;5033802;28;20038;-58
2021/09/09 05:06:04;;;;;;;10.23;7.70;;;;;;;;;;5033435;28;20029;-58
2021/09/09 05:08:30;;;;;;;10.10;8.82;;;;;;;;;;5033339;28;20031;-58
2021/09/09 05:10:56;;;;;;;9.70;7.93;;;;;;;;;;5033693;28;20057;-58
2021/09/09 05:13:22;;;;;;;11.85;9.23;;;;;;;;;;5033475;28;20045;-58
2021/09/09 05:15:48;;;;;;;10.30;9.18;;;;;;;;;;5033239;28;20387;-58
2021/09/09 05:18:14;;;;;;;12.90;8.90;;;;;;;;;;5033289;28;20030;-58
2021/09/09 05:20:40;;;;;;;9.98;8.63;;;;;;;;;;5033595;28;20022;-59
2021/09/09 05:23:06;;;;;;;13.68;8.98;;;;;;;;;;5033324;28;20018;-59
2021/09/09 05:25:32;;;;;;;8.75;7.82;;;;;;;;;;5033242;28;20356;-58
2021/09/09 05:27:58;;;;;;;9.68;7.90;;;;;;;;;;5033124;28;20541;-58
2021/09/09 05:30:24;;;;;;;10.05;8.20;;;;;;;;;;5033117;28;20026;-58
2021/09/09 05:32:50;;;;;;;12.73;8.80;;;;;;;;;;5032903;28;20541;-58
2021/09/09 05:35:16;;;;;;;10.52;8.63;;;;;;;;;;5033410;28;20037;-59
2021/09/09 05:37:42;;;;;;;8.50;7.70;;;;;;;;;;5033532;28;20383;-58
2021/09/09 05:40:11;;;;;;;9.75;7.97;;;;;;;;;;5033146;28;20021;-58
2021/09/09 05:42:37;;;;;;;10.20;8.10;;;;;;;;;;5033696;28;20033;-58
2021/09/09 05:45:03;;;;;;;9.18;8.25;;;;;;;;;;5033115;28;20029;-58
2021/09/09 05:47:29;;;;;;;10.10;8.38;;;;;;;;;;5033292;28;20033;-58
2021/09/09 05:49:55;;;;;;;13.13;7.88;;;;;;;;;;5032963;28;20073;-58
2021/09/09 05:52:21;;;;;;;12.55;9.02;;;;;;;;;;5033040;28;20032;-58
2021/09/09 05:54:47;;;;;;;10.73;9.38;;;;;;;;;;5034725;28;20021;-58
2021/09/09 05:57:13;;;;;;;15.93;8.45;;;;;;;;;;5037195;28;20355;-58
2021/09/09 05:59:39;;;;;;;8.68;7.78;;;;;;;;;;5036736;28;20033;-58
2021/09/09 06:02:13;;;;;;;9.38;7.60;;;;;;;;;;5037057;28;20033;-58
2021/09/09 06:04:39;;;;;;;9.93;8.88;;;;;;;;;;5036440;28;20065;-58
2021/09/09 06:07:05;;;;;;;7.25;6.53;;;;;;;;;;5036323;28;20021;-58
2021/09/09 06:09:31;;;;;;;8.73;7.40;;;;;;;;;;5018778;28;20079;-58
2021/09/09 06:11:57;;;;;;;13.95;7.75;;;;;;;;;;5036103;28;20395;-58
2021/09/09 06:14:23;;;;;;;9.00;7.80;;;;;;;;;;5036192;28;20122;-58
2021/09/09 06:16:49;;;;;;;10.57;7.10;;;;;;;;;;5036807;28;20026;-58
2021/09/09 06:19:15;;;;;;;8.43;6.80;;;;;;;;;;5036769;28;20029;-58
2021/09/09 06:21:41;;;;;;;10.38;8.07;;;;;;;;;;5035917;28;20527;-58
2021/09/09 06:24:07;;;;;;;7.93;7.10;;;;;;;;;;5035833;28;20029;-58
2021/09/09 06:26:33;;;;;;;9.15;7.45;;;;;;;;;;5036468;28;20025;-58
2021/09/09 06:28:59;;;;;;;9.10;7.50;;;;;;;;;;5035826;28;20391;-58
2021/09/09 06:31:25;;;;;;;10.07;7.68;;;;;;;;;;5036070;28;20029;-58
2021/09/09 06:33:54;;;;;;;7.85;7.05;;;;;;;;;;5036160;28;20033;-58
2021/09/09 06:36:20;;;;;;;12.73;7.05;;;;;;;;;;5035763;28;20049;-58
2021/09/09 06:38:46;;;;;;;8.48;7.20;;;;;;;;;;5017869;28;20490;-58
2021/09/09 06:41:12;;;;;;;9.75;7.80;;;;;;;;;;5035635;28;20092;-58
2021/09/09 06:43:38;;;;;;;9.07;7.25;;;;;;;;;;5036174;28;20035;-58
2021/09/09 06:46:04;;;;;;;8.75;7.53;;;;;;;;;;5035504;28;20026;-58
2021/09/09 06:48:31;;;;;;;7.63;6.82;;;;;;;;;;5035566;28;20404;-58
2021/09/09 06:50:57;;;;;;;7.65;6.85;;;;;;;;;;5017993;28;20022;-58
2021/09/09 06:53:24;;;;;;;7.82;6.43;;;;;;;;;;5035775;28;20029;-58
2021/09/09 06:55:49;;;;;;;8.15;7.20;;;;;;;;;;5035034;28;20109;-58
2021/09/09 06:58:15;;;;;;;9.07;7.43;;;;;;;;;;5035784;28;20042;-58
2021/09/09 07:00:44;;;;;;;8.52;7.20;;;;;;;;;;5035119;28;20368;-58
2021/09/09 07:03:10;;;;;;;8.60;6.45;;;;;;;;;;5035100;28;20022;-58
2021/09/09 07:05:38;;;;;;;9.82;7.57;;;;;;;;;;5034923;28;20018;-58
2021/09/09 07:08:04;;;;;;;9.27;7.30;;;;;;;;;;5035359;28;20522;-58
2021/09/09 07:10:30;;;;;;;7.97;7.18;;;;;;;;;;5035715;28;20025;-58
2021/09/09 07:12:56;;;;;;;8.35;6.70;;;;;;;;;;5017310;28;20052;-58
2021/09/09 07:15:22;;;;;;;8.65;7.72;;;;;;;;;;5035048;28;20456;-58
2021/09/09 07:17:48;;;;;;;8.30;7.43;;;;;;;;;;5034997;28;20037;-58
2021/09/09 07:20:16;;;;;;;10.23;8.43;;;;;;;;;;5034902;28;20053;-58
2021/09/09 07:22:42;;;;;;;10.80;7.13;;;;;;;;;;5035001;28;20017;-58
2021/09/09 07:25:10;;;;;;;9.50;7.10;;;;;;;;;;5035367;28;20029;-58
2021/09/09 07:27:37;;;;;;;7.57;6.75;;;;;;;;;;5034495;28;20018;-58
2021/09/09 07:30:04;;;;;;;13.55;7.22;;;;;;;;;;5034603;28;20464;-58
2021/09/09 07:32:30;;;;;;;8.00;7.20;;;;;;;;;;5035098;28;20029;-58
2021/09/09 07:34:56;;;;;;;9.50;7.88;;;;;;;;;;5034346;28;20025;-58
2021/09/09 07:37:22;;;;;;;10.35;7.43;;;;;;;;;;5016813;28;20033;-58
2021/09/09 07:39:48;;;;;;;11.77;6.20;;;;;;;;;;5017415;28;20162;-58
2021/09/09 07:42:15;;;;;;;11.10;7.53;;;;;;;;;;5035175;28;20475;-59
2021/09/09 07:44:40;;;;;;;8.25;6.95;;;;;;;;;;5017588;28;20430;-59
2021/09/09 07:47:06;;;;;;;7.72;6.32;;;;;;;;;;5034823;28;20104;-59
2021/09/09 07:49:33;;;;;;;8.60;6.68;;;;;;;;;;5034457;28;20013;-59
2021/09/09 07:51:59;;;;;;;8.70;7.03;;;;;;;;;;5034666;28;20036;-59
2021/09/09 07:54:25;;;;;;;7.82;6.00;;;;;;;;;;5034325;28;20529;-59
2021/09/09 07:56:53;;;;;;;7.22;6.53;;;;;;;;;;5016543;28;20036;-58
2021/09/09 07:59:20;;;;;;;7.72;6.47;;;;;;;;;;5034060;28;20411;-58
2021/09/09 08:01:45;;;;;;;10.07;6.72;;;;;;;;;;5034683;28;20032;-58
2021/09/09 08:04:16;;;;;;;7.07;6.35;;;;;;;;;;5034212;28;20030;-58
2021/09/09 08:06:43;;;;;;;;;;;;;;;;;;5034907;28;20419;-59
2021/09/09 08:09:09;;;;;;;7.47;5.90;;;;;;;;;;5034030;28;19909;-59
2021/09/09 08:11:35;;;;;;;6.55;5.68;;;;;;;;;;5034018;28;20052;-58
2021/09/09 08:14:01;;;;;;;9.55;6.38;;;;;;;;;;5033607;28;20045;-59
2021/09/09 08:16:26;;;;;;;8.30;6.22;;;;;;;;;;5034509;28;20076;-59
2021/09/09 08:18:52;;;;;;;11.35;6.60;;;;;;;;;;5032760;28;20491;-59
2021/09/09 08:21:18;;;;;;;7.32;5.32;;;;;;;;;;5033894;28;20025;-59
2021/09/09 08:23:44;;;;;;;6.90;5.40;;;;;;;;;;5034516;28;20029;-59
2021/09/09 08:26:11;;;;;;;6.32;5.03;;;;;;;;;;5033935;28;20029;-59
2021/09/09 08:28:38;;;;;;;6.93;5.63;;;;;;;;;;5033765;28;20083;-59
2021/09/09 08:31:04;;;;;;;6.30;4.80;;;;;;;;;;5034294;28;20029;-59
2021/09/09 08:33:30;;;;;;;6.78;5.30;;;;;;;;;;5034479;28;20116;-59
2021/09/09 08:35:56;;;;;;;8.60;5.38;;;;;;;;;;5033754;28;20412;-59
2021/09/09 08:38:22;;;;;;;5.80;5.20;;;;;;;;;;5033615;28;20133;-59
2021/09/09 08:40:50;;;;;;;6.70;5.90;;;;;;;;;;5033284;28;20053;-59
2021/09/09 08:43:16;;;;;;;6.82;5.70;;;;;;;;;;5034501;28;20029;-58
2021/09/09 08:45:42;;;;;;;8.27;5.90;;;;;;;;;;5033741;28;20456;-59
2021/09/09 08:48:09;;;;;;;6.47;5.28;;;;;;;;;;5034181;28;20025;-59
2021/09/09 08:50:35;;;;;;;5.93;5.13;;;;;;;;;;5033839;28;20022;-59
2021/09/09 08:53:02;;;;;;;5.45;4.95;;;;;;;;;;5033820;28;20083;-58
2021/09/09 08:55:28;;;;;;;8.48;5.28;;;;;;;;;;5034272;28;20028;-59
2021/09/09 08:57:55;;;;;;;8.73;5.07;;;;;;;;;;5033403;28;20030;-59
2021/09/09 09:00:21;;;;;;;5.25;4.75;;;;;;;;;;5033447;28;20052;-59
2021/09/09 09:02:51;;;;;;;6.30;4.82;;;;;;;;;;5033798;28;20061;-59
2021/09/09 09:05:17;;;;;;;8.27;5.60;;;;;;;;;;5033804;28;20026;-59
2021/09/09 09:07:43;;;;;;;6.05;5.35;;;;;;;;;;5033457;28;20116;-59
2021/09/09 09:10:09;;;;;;;7.43;5.57;;;;;;;;;;5033219;28;20053;-59
2021/09/09 09:12:47;;;;;;;7.00;5.03;;;;;;;;;;5033285;28;20521;-59
2021/09/09 09:15:21;;;;;;;6.43;5.80;;;;;;;;;;5033497;28;20507;-59
2021/09/09 09:17:53;;;;;;;9.55;4.85;;;;;;;;;;5033408;28;20038;-58
2021/09/09 09:20:19;;;;;;;5.88;5.30;;;;;;;;;;5032934;28;20021;-59
2021/09/09 09:22:45;;;;;;;6.63;4.82;;;;;;;;;;5033029;28;20017;-59
2021/09/09 09:25:11;;;;;;;5.55;4.82;;;;;;;;;;5033243;28;20026;-59
2021/09/09 09:27:45;;;;;;;7.35;5.03;;;;;;;;;;5033085;28;20041;-58
2021/09/09 09:30:12;;;;;;;6.75;6.05;;;;;;;;;;5035790;28;20370;-59
2021/09/09 09:32:48;;;;;;;6.85;5.80;;;;;;;;;;5036613;28;20484;-59
2021/09/09 09:35:19;;;;;;;6.05;4.70;;;;;;;;;;5036685;28;20021;-59
2021/09/09 09:37:55;;;;;;;5.63;4.90;;;;;;;;;;5036789;28;20379;-59
2021/09/09 09:40:25;;;;;;;5.70;4.38;;;;;;;;;;5037107;28;20567;-59
2021/09/09 09:42:51;;;;;;;5.97;5.38;;;;;;;;;;5036747;28;20021;-59
2021/09/09 09:45:17;;;;;;;7.25;4.47;;;;;;;;;;5036263;28;20116;-59
2021/09/09 09:47:43;;;;;;;5.38;4.88;;;;;;;;;;5036753;28;20021;-59
2021/09/09 09:50:16;;;;;;;5.38;4.88;;;;;;;;;;5036751;28;20028;-59
2021/09/09 09:52:42;;;;;;;5.95;5.35;;;;;;;;;;5036933;28;20530;-59
2021/09/09 09:55:10;;;;;;;6.47;4.75;;;;;;;;;;5036641;28;20372;-59
2021/09/09 09:57:49;;;;;;;5.90;5.00;;;;;;;;;;5036428;28;20088;-59
2021/09/09 10:00:15;;;;;;;6.45;5.03;;;;;;;;;;5036853;28;20375;-59
2021/09/09 10:02:42;;;;;;;5.57;4.80;;;;;;;;;;5037101;28;20029;-59
2021/09/09 10:05:09;;;;;;;5.70;5.18;;;;;;;;;;5036440;28;20142;-59
2021/09/09 10:07:35;;;;;;;6.28;4.72;;;;;;;;;;5036606;28;20417;-59
2021/09/09 10:10:01;;;;;;;6.72;5.65;;;;;;;;;;5036292;28;20451;-59
2021/09/09 10:12:27;;;;;;;8.57;5.60;;;;;;;;;;5036208;28;20072;-59
2021/09/09 10:14:57;;;;;;;6.25;5.32;;;;;;;;;;5036551;28;20076;-59
2021/09/09 10:17:24;;;;;;;5.75;5.15;;;;;;;;;;5036626;28;20017;-59
2021/09/09 10:19:50;;;;;;;5.28;4.57;;;;;;;;;;5036117;28;20022;-59
2021/09/09 10:22:17;;;;;;;6.97;5.22;;;;;;;;;;5036610;28;20061;-59
2021/09/09 10:24:48;;;;;;;8.70;5.25;;;;;;;;;;5036148;28;20029;-59
2021/09/09 10:27:14;;;;;;;10.23;4.85;;;;;;;;;;5036087;28;20025;-59
2021/09/09 10:29:48;;;;;;;7.75;5.55;;;;;;;;;;5035714;28;20032;-59
2021/09/09 10:32:29;;;;;;;5.68;5.18;;;;;;;;;;5036428;28;20032;-59
2021/09/09 10:35:14;;;;;;;5.78;4.95;;;;;;;;;;5035851;28;20028;-59
2021/09/09 10:37:40;;;;;;;6.38;5.00;;;;;;;;;;5035716;28;20038;-59
2021/09/09 10:40:07;;;;;;;4.60;4.10;;;;;;;;;;5035445;28;20096;-59
2021/09/09 10:42:34;;;;;;;6.07;4.50;;;;;;;;;;5035617;28;20022;-59
2021/09/09 10:45:00;;;;;;;8.02;4.53;;;;;;;;;;5036457;28;20021;-59
2021/09/09 10:47:26;;;;;;;6.90;5.05;;;;;;;;;;5036145;28;20028;-59
2021/09/09 10:50:01;;;;;;;5.22;4.40;;;;;;;;;;5035850;28;20021;-59
2021/09/09 10:52:27;;;;;;;5.50;3.88;;;;;;;;;;5035689;28;20371;-59
2021/09/09 10:55:05;;;;;;;3.83;3.28;;;;;;;;;;5035721;28;20036;-59
2021/09/09 10:57:31;;;;;;;6.20;4.15;;;;;;;;;;5035607;28;20424;-59
2021/09/09 10:59:57;;;;;;;9.15;4.40;;;;;;;;;;5035140;28;20468;-59
2021/09/09 11:02:23;;;;;;;4.70;4.05;;;;;;;;;;5035557;28;20043;-59
2021/09/09 11:04:49;;;;;;;4.32;3.47;;;;;;;;;;5035822;28;20032;-59
2021/09/09 11:07:27;;;;;;;6.30;3.83;;;;;;;;;;5035580;28;20108;-59
2021/09/09 11:09:59;;;;;;;7.20;4.15;;;;;;;;;;5035103;28;20022;-59
2021/09/09 11:12:25;;;;;;;6.47;4.60;;;;;;;;;;5035249;28;20041;-59
2021/09/09 11:14:50;;;;;;;5.38;3.53;;;;;;;;;;5035095;28;20080;-59
2021/09/09 11:17:17;;;;;;;4.43;3.33;;;;;;;;;;5034971;28;20411;-59
2021/09/09 11:19:43;;;;;;;4.97;3.28;;;;;;;;;;5035256;28;20030;-59
2021/09/09 11:22:09;;;;;;;10.27;4.35;;;;;;;;;;5017417;28;20026;-59
2021/09/09 11:24:35;;;;;;;4.50;3.70;;;;;;;;;;5017154;28;20052;-59
2021/09/09 11:27:02;;;;;;;3.97;3.15;;;;;;;;;;5035323;28;20027;-59
2021/09/09 11:29:28;;;;;;;4.55;3.90;;;;;;;;;;5034762;28;20057;-59
2021/09/09 11:31:56;;;;;;;5.18;4.38;;;;;;;;;;5034682;28;20017;-59
2021/09/09 11:34:23;;;;;;;5.78;3.78;;;;;;;;;;5034745;28;20029;-59
2021/09/09 11:36:50;;;;;;;4.65;3.70;;;;;;;;;;5035004;28;20025;-59
2021/09/09 11:39:19;;;;;;;4.93;2.78;;;;;;;;;;5035093;28;20048;-59
2021/09/09 11:41:45;;;;;;;5.32;3.38;;;;;;;;;;5035113;28;20080;-59
2021/09/09 11:44:34;;;;;;;4.53;3.22;;;;;;;;;;5016816;28;20025;-59
2021/09/09 11:47:01;;;;;;;5.25;3.80;;;;;;;;;;5034574;28;20072;-59
2021/09/09 11:49:30;;;;;;;6.35;3.80;;;;;;;;;;5034473;28;20029;-59
2021/09/09 11:51:57;;;;;;;4.00;3.15;;;;;;;;;;5034778;28;20022;-59
2021/09/09 11:54:27;;;;;;;5.95;3.40;;;;;;;;;;5034249;28;20026;-59
2021/09/09 11:57:03;;;;;;;5.32;3.47;;;;;;;;;;5034628;28;20049;-59
2021/09/09 11:59:29;;;;;;;4.18;3.65;;;;;;;;;;5034290;28;20033;-59
2021/09/09 12:02:05;;;;;;;6.72;2.97;;;;;;;;;;5034522;28;20014;-59
2021/09/09 12:04:31;;;;;;;4.60;3.70;;;;;;;;;;5034309;28;20071;-59
2021/09/09 12:06:57;;;;;;;4.05;3.45;;;;;;;;;;5034146;28;20017;-58
2021/09/09 12:09:37;;;;;;;5.22;3.95;;;;;;;;;;5034699;28;20025;-59
2021/09/09 12:12:04;;;;;;;4.60;3.70;;;;;;;;;;5034158;28;20018;-59
2021/09/09 12:14:30;;;;;;;5.50;4.05;;;;;;;;;;5034430;28;20104;-58
2021/09/09 12:17:26;;;;;;;4.50;4.03;;;;;;;;;;5034276;28;20356;-59
2021/09/09 12:19:55;;;;;;;4.80;3.42;;;;;;;;;;5017158;28;20045;-58
2021/09/09 12:22:22;;;;;;;4.47;3.92;;;;;;;;;;5016522;28;20345;-58
2021/09/09 12:24:48;;;;;;;6.30;4.10;;;;;;;;;;5034046;28;20040;-59
2021/09/09 12:27:18;;;;;;;6.18;4.32;;;;;;;;;;5033916;28;20025;-59
2021/09/09 12:29:46;;;;;;;5.40;4.18;;;;;;;;;;5033790;28;20053;-58
2021/09/09 12:32:30;;;;;;;5.00;4.50;;;;;;;;;;5034023;28;20017;-59
2021/09/09 12:35:14;;;;;;;4.30;3.70;;;;;;;;;;5033986;28;20029;-59
2021/09/09 12:37:40;;;;;;;4.57;4.03;;;;;;;;;;5033499;28;20033;-59
2021/09/09 12:40:06;;;;;;;4.57;4.18;;;;;;;;;;5033596;28;20036;-59
2021/09/09 12:42:32;;;;;;;4.75;3.80;;;;;;;;;;5033669;28;20341;-59
2021/09/09 12:44:58;;;;;;;3.75;3.38;;;;;;;;;;5034297;28;20128;-59
2021/09/09 12:47:24;;;;;;;5.45;3.53;;;;;;;;;;5033569;28;20462;-59
2021/09/09 12:49:50;;;;;;;4.38;3.10;;;;;;;;;;5033731;28;20044;-59
2021/09/09 12:52:16;;;;;;;4.50;3.85;;;;;;;;;;5034174;28;20026;-59
2021/09/09 12:54:46;;;;;;;6.85;3.83;;;;;;;;;;5034152;28;20105;-59
2021/09/09 12:57:14;;;;;;;4.45;3.53;;;;;;;;;;5033948;28;20025;-59
2021/09/09 12:59:40;;;;;;;5.32;4.05;;;;;;;;;;5033787;28;20427;-59
2021/09/09 13:02:06;;;;;;;5.90;3.85;;;;;;;;;;5016495;28;20030;-59
2021/09/09 13:04:32;;;;;;;6.78;4.18;;;;;;;;;;5035399;28;20427;-59
2021/09/09 13:06:58;;;;;;;5.63;3.65;;;;;;;;;;5037370;28;20044;-59
2021/09/09 13:09:26;;;;;;;4.18;3.78;;;;;;;;;;5037500;28;20029;-59
2021/09/09 13:11:52;;;;;;;5.10;3.85;;;;;;;;;;5037695;28;20026;-59
2021/09/09 13:14:18;;;;;;;4.90;3.60;;;;;;;;;;5037818;28;20139;-59
2021/09/09 13:16:44;;;;;;;3.65;3.28;;;;;;;;;;5037252;28;20468;-59
2021/09/09 13:19:13;;;;;;;5.75;4.13;;;;;;;;;;5037444;28;20033;-59
2021/09/09 13:21:39;;;;;;;5.25;3.40;;;;;;;;;;5037682;28;20030;-59
2021/09/09 13:24:05;;;;;;;5.25;4.20;;;;;;;;;;5037216;28;20422;-59
2021/09/09 13:26:32;;;;;;;5.28;3.78;;;;;;;;;;5019436;28;20057;-59
2021/09/09 13:28:58;;;;;;;4.32;3.63;;;;;;;;;;5037134;28;20040;-59
2021/09/09 13:31:25;;;;;;;5.10;3.53;;;;;;;;;;5037042;28;20036;-59
2021/09/09 13:33:51;;;;;;;7.50;3.40;;;;;;;;;;5037325;28;20193;-59
2021/09/09 13:36:18;;;;;;;4.35;3.80;;;;;;;;;;5036938;28;20021;-59
2021/09/09 13:38:44;;;;;;;4.85;3.60;;;;;;;;;;5037018;28;20040;-59
2021/09/09 13:41:10;;;;;;;6.15;3.90;;;;;;;;;;5036923;28;20459;-59
2021/09/09 13:43:36;;;;;;;6.07;4.38;;;;;;;;;;5037235;28;20137;-59
2021/09/09 13:46:02;;;;;;;4.18;3.67;;;;;;;;;;5036891;28;20021;-59
2021/09/09 13:48:28;;;;;;;5.68;3.92;;;;;;;;;;5036750;28;20035;-59
2021/09/09 13:50:54;;;;;;;5.07;3.63;;;;;;;;;;5036778;28;20018;-59
2021/09/09 13:53:21;;;;;;;5.07;3.92;;;;;;;;;;5037331;28;20022;-59
2021/09/09 13:55:48;;;;;;;13.60;4.05;;;;;;;;;;5036583;28;20029;-59
2021/09/09 13:58:14;;;;;;;4.65;3.38;;;;;;;;;;5036430;28;20026;-59
2021/09/09 14:00:41;;;;;;;4.88;3.75;;;;;;;;;;5036395;28;20025;-59
2021/09/09 14:03:07;;;;;;;5.47;4.03;;;;;;;;;;5036616;28;20057;-59
2021/09/09 14:05:34;;;;;;;3.65;3.25;;;;;;;;;;5036281;28;20021;-59
2021/09/09 14:08:00;;;;;;;5.22;3.30;;;;;;;;;;5036840;28;20116;-59
2021/09/09 14:10:26;;;;;;;6.18;3.25;;;;;;;;;;5036265;28;20505;-59
2021/09/09 14:12:52;;;;;;;5.43;3.65;;;;;;;;;;5036138;28;20449;-59
2021/09/09 14:15:21;;;;;;;4.32;3.47;;;;;;;;;;5036995;28;20025;-59
2021/09/09 14:17:47;;;;;;;7.85;4.07;;;;;;;;;;5036635;28;20045;-59
2021/09/09 14:20:14;;;;;;;4.97;3.38;;;;;;;;;;5036513;28;20034;-59
2021/09/09 14:22:40;;;;;;;6.15;3.95;;;;;;;;;;5036707;28;20036;-59
2021/09/09 14:25:07;;;;;;;4.40;3.45;;;;;;;;;;5036103;28;20022;-59
2021/09/09 14:27:33;;;;;;;6.70;3.97;;;;;;;;;;5036553;28;20108;-59
2021/09/09 14:29:59;;;;;;;4.20;3.53;;;;;;;;;;5036214;28;20079;-59
2021/09/09 14:32:25;;;;;;;4.32;3.50;;;;;;;;;;5035923;28;20376;-59
2021/09/09 14:34:52;;;;;;;6.53;3.67;;;;;;;;;;5036511;28;20026;-59
2021/09/09 14:37:18;;;;;;;3.70;3.10;;;;;;;;;;5035990;28;20033;-59
2021/09/09 14:39:44;;;;;;;4.07;3.13;;;;;;;;;;5035677;28;20040;-59